createdAt,value
2016-08-24T00:00:39.586Z,21.08
2016-08-24T00:01:39.562Z,21.16
2016-08-24T00:02:39.513Z,21.05
2016-08-24T00:03:39.461Z,21.14
2016-08-24T00:04:39.423Z,21.17
2016-08-24T00:05:37.988Z,21.11
2016-08-24T00:06:39.324Z,21.06
2016-08-24T00:07:39.294Z,21.09
2016-08-24T00:08:39.244Z,21.09
2016-08-24T00:09:39.439Z,21.04
2016-08-24T00:10:39.173Z,21.06
2016-08-24T00:11:39.310Z,21.06
2016-08-24T00:12:38.571Z,21.02
2016-08-24T00:13:37.632Z,20.96
2016-08-24T00:14:38.281Z,20.99
2016-08-24T00:15:38.473Z,20.98
2016-08-24T00:16:38.904Z,20.96
2016-08-24T00:17:38.854Z,20.84
2016-08-24T00:18:38.111Z,20.87
2016-08-24T00:19:38.765Z,20.87
2016-08-24T00:20:38.723Z,20.86
2016-08-24T00:21:38.671Z,20.89
2016-08-24T00:22:38.834Z,20.91
2016-08-24T00:23:38.602Z,20.83
2016-08-24T00:24:38.574Z,20.87
2016-08-24T00:25:37.798Z,20.91
2016-08-24T00:26:38.451Z,20.87
2016-08-24T00:27:37.922Z,20.89
2016-08-24T00:28:38.382Z,20.91
2016-08-24T00:29:38.338Z,20.99
2016-08-24T00:30:38.279Z,21.04
2016-08-24T00:31:38.235Z,21.09
2016-08-24T00:32:38.394Z,21.05
2016-08-24T00:33:38.155Z,21.02
2016-08-24T00:34:37.423Z,21.04
2016-08-24T00:35:38.263Z,21.13
2016-08-24T00:36:38.012Z,21.09
2016-08-24T00:37:38.175Z,21.06
2016-08-24T00:38:38.353Z,21.16
2016-08-24T00:39:38.289Z,21.14
2016-08-24T00:40:37.164Z,21.05
2016-08-24T00:41:37.801Z,21.11
2016-08-24T00:42:37.751Z,21.05
2016-08-24T00:43:37.946Z,21.04
2016-08-24T00:44:36.960Z,20.98
2016-08-24T00:45:37.614Z,20.89
2016-08-24T00:46:37.783Z,20.95
2016-08-24T00:47:38.241Z,20.95
2016-08-24T00:48:37.498Z,20.91
2016-08-24T00:49:36.769Z,20.98
2016-08-24T00:50:37.389Z,21.01
2016-08-24T00:51:36.654Z,21.09
2016-08-24T00:52:37.310Z,21.09
2016-08-24T00:53:36.594Z,21.04
2016-08-24T00:54:37.227Z,20.98
2016-08-24T00:55:37.189Z,21.05
2016-08-24T00:56:36.443Z,21.01
2016-08-24T00:57:37.103Z,21.02
2016-08-24T00:58:35.652Z,20.96
2016-08-24T00:59:37.013Z,20.98
2016-08-24T01:00:35.565Z,20.89
2016-08-24T01:01:36.223Z,20.91
2016-08-24T01:02:37.294Z,21.01
2016-08-24T01:03:36.829Z,20.93
2016-08-24T01:04:36.845Z,20.9
2016-08-24T01:05:36.484Z,20.84
2016-08-24T01:06:36.713Z,20.91
2016-08-24T01:07:36.663Z,20.93
2016-08-24T01:08:35.916Z,20.81
2016-08-24T01:09:36.593Z,20.79
2016-08-24T01:10:36.518Z,20.8
2016-08-24T01:11:35.095Z,20.76
2016-08-24T01:12:36.445Z,20.71
2016-08-24T01:13:36.602Z,20.8
2016-08-24T01:14:36.348Z,20.8
2016-08-24T01:15:36.325Z,20.79
2016-08-24T01:16:36.273Z,20.79
2016-08-24T01:17:36.220Z,20.86
2016-08-24T01:18:36.168Z,20.9
2016-08-24T01:19:35.435Z,20.95
2016-08-24T01:20:35.383Z,20.93
2016-08-24T01:21:36.268Z,20.9
2016-08-24T01:22:36.005Z,20.93
2016-08-24T01:23:35.254Z,20.93
2016-08-24T01:24:35.213Z,20.89
2016-08-24T01:25:35.181Z,20.87
2016-08-24T01:26:36.016Z,20.86
2016-08-24T01:27:35.796Z,20.79
2016-08-24T01:28:35.033Z,20.79
2016-08-24T01:29:34.985Z,20.79
2016-08-24T01:30:35.853Z,20.72
2016-08-24T01:31:35.093Z,20.77
2016-08-24T01:32:35.579Z,20.74
2016-08-24T01:33:35.507Z,20.76
2016-08-24T01:34:34.766Z,20.71
2016-08-24T01:35:35.422Z,20.69
2016-08-24T01:36:34.692Z,20.65
2016-08-24T01:37:35.335Z,20.58
2016-08-24T01:38:35.513Z,20.65
2016-08-24T01:39:35.253Z,20.64
2016-08-24T01:40:35.434Z,20.64
2016-08-24T01:41:35.363Z,20.68
2016-08-24T01:42:35.122Z,20.59
2016-08-24T01:43:35.275Z,20.65
2016-08-24T01:44:35.033Z,20.71
2016-08-24T01:45:35.377Z,20.66
2016-08-24T01:46:34.445Z,20.66
2016-08-24T01:47:34.904Z,20.66
2016-08-24T01:48:34.844Z,20.51
2016-08-24T01:49:34.124Z,20.51
2016-08-24T01:50:34.973Z,20.58
2016-08-24T01:51:34.708Z,20.5
2016-08-24T01:52:34.183Z,20.39
2016-08-24T01:53:34.635Z,20.42
2016-08-24T01:54:34.588Z,20.49
2016-08-24T01:55:34.610Z,20.43
2016-08-24T01:56:33.812Z,20.51
2016-08-24T01:57:34.548Z,20.5
2016-08-24T01:58:33.713Z,20.54
2016-08-24T01:59:33.163Z,20.5
2016-08-24T02:00:34.334Z,20.58
2016-08-24T02:01:34.274Z,20.49
2016-08-24T02:02:33.032Z,20.59
2016-08-24T02:03:33.493Z,20.65
2016-08-24T02:04:34.363Z,20.64
2016-08-24T02:05:34.124Z,20.61
2016-08-24T02:06:34.264Z,20.62
2016-08-24T02:07:34.212Z,20.64
2016-08-24T02:08:33.980Z,20.61
2016-08-24T02:09:33.242Z,20.62
2016-08-24T02:10:33.193Z,20.47
2016-08-24T02:11:33.834Z,20.53
2016-08-24T02:12:33.104Z,20.54
2016-08-24T02:13:33.753Z,20.54
2016-08-24T02:14:33.710Z,20.51
2016-08-24T02:15:33.874Z,20.43
2016-08-24T02:16:32.922Z,20.49
2016-08-24T02:17:32.879Z,20.51
2016-08-24T02:18:32.843Z,20.35
2016-08-24T02:19:32.980Z,20.38
2016-08-24T02:20:33.491Z,20.43
2016-08-24T02:21:34.098Z,20.43
2016-08-24T02:22:32.363Z,20.53
2016-08-24T02:23:32.614Z,20.53
2016-08-24T02:24:33.261Z,20.5
2016-08-24T02:25:33.422Z,20.53
2016-08-24T02:26:33.194Z,20.43
2016-08-24T02:27:33.537Z,20.58
2016-08-24T02:28:33.292Z,20.51
2016-08-24T02:29:33.053Z,20.49
2016-08-24T02:30:32.288Z,20.42
2016-08-24T02:31:32.953Z,20.43
2016-08-24T02:32:32.912Z,20.39
2016-08-24T02:33:32.894Z,20.35
2016-08-24T02:34:33.025Z,20.31
2016-08-24T02:35:32.283Z,20.31
2016-08-24T02:36:32.739Z,20.15
2016-08-24T02:37:31.980Z,20
2016-08-24T02:38:32.644Z,20
2016-08-24T02:39:32.601Z,20.12
2016-08-24T02:40:32.563Z,20.03
2016-08-24T02:41:31.883Z,20.16
2016-08-24T02:42:32.476Z,20.06
2016-08-24T02:43:31.724Z,20.1
2016-08-24T02:44:32.389Z,20.03
2016-08-24T02:45:32.326Z,19.97
2016-08-24T02:46:32.486Z,19.97
2016-08-24T02:47:32.253Z,20
2016-08-24T02:48:32.191Z,19.97
2016-08-24T02:49:32.172Z,19.98
2016-08-24T02:50:32.311Z,19.98
2016-08-24T02:51:31.576Z,19.98
2016-08-24T02:52:31.324Z,20.1
2016-08-24T02:53:31.974Z,20.12
2016-08-24T02:54:31.434Z,20.1
2016-08-24T02:55:31.893Z,20.08
2016-08-24T02:56:32.073Z,20.15
2016-08-24T02:57:31.121Z,20.1
2016-08-24T02:58:31.100Z,20.16
2016-08-24T02:59:31.413Z,20.27
2016-08-24T03:00:31.694Z,20.2
2016-08-24T03:01:31.622Z,20.12
2016-08-24T03:02:31.784Z,20.15
2016-08-24T03:03:31.531Z,20.21
2016-08-24T03:04:31.499Z,20.18
2016-08-24T03:05:31.638Z,20.23
2016-08-24T03:06:30.778Z,20.28
2016-08-24T03:07:31.372Z,20.21
2016-08-24T03:08:31.314Z,20.15
2016-08-24T03:09:30.563Z,20.18
2016-08-24T03:10:31.424Z,20.23
2016-08-24T03:11:31.183Z,20.21
2016-08-24T03:12:31.154Z,20.16
2016-08-24T03:13:30.395Z,20.1
2016-08-24T03:14:31.248Z,20.08
2016-08-24T03:15:31.005Z,20.08
2016-08-24T03:16:31.143Z,20.18
2016-08-24T03:17:31.115Z,20.16
2016-08-24T03:18:31.080Z,20.18
2016-08-24T03:19:30.825Z,20.15
2016-08-24T03:20:30.988Z,20.23
2016-08-24T03:21:30.945Z,20.15
2016-08-24T03:22:30.696Z,20.13
2016-08-24T03:23:30.645Z,20.1
2016-08-24T03:24:30.601Z,20.02
2016-08-24T03:25:30.547Z,20.02
2016-08-24T03:26:30.562Z,20.15
2016-08-24T03:27:30.470Z,20.15
2016-08-24T03:28:29.734Z,20.16
2016-08-24T03:29:29.886Z,20.2
2016-08-24T03:30:30.324Z,20.25
2016-08-24T03:31:30.304Z,20.23
2016-08-24T03:32:30.658Z,20.24
2016-08-24T03:33:29.702Z,20.18
2016-08-24T03:34:30.155Z,20.24
2016-08-24T03:35:30.317Z,20.31
2016-08-24T03:36:30.757Z,20.25
2016-08-24T03:37:30.014Z,20.23
2016-08-24T03:38:30.446Z,20.16
2016-08-24T03:39:29.231Z,20.15
2016-08-24T03:40:29.886Z,20.06
2016-08-24T03:41:30.034Z,20.03
2016-08-24T03:42:30.016Z,19.93
2016-08-24T03:43:29.762Z,19.94
2016-08-24T03:44:29.745Z,19.88
2016-08-24T03:45:29.665Z,19.88
2016-08-24T03:46:29.631Z,19.9
2016-08-24T03:47:28.876Z,19.83
2016-08-24T03:48:29.736Z,19.87
2016-08-24T03:49:29.490Z,19.84
2016-08-24T03:50:29.444Z,19.8
2016-08-24T03:51:28.725Z,19.88
2016-08-24T03:52:29.557Z,19.87
2016-08-24T03:53:28.615Z,19.8
2016-08-24T03:54:29.463Z,19.86
2016-08-24T03:55:29.426Z,19.84
2016-08-24T03:56:29.174Z,19.87
2016-08-24T03:57:29.755Z,19.87
2016-08-24T03:58:29.100Z,19.87
2016-08-24T03:59:29.042Z,19.83
2016-08-24T04:00:28.306Z,19.87
2016-08-24T04:01:28.946Z,19.88
2016-08-24T04:02:28.914Z,19.87
2016-08-24T04:03:28.874Z,19.94
2016-08-24T04:04:28.845Z,19.93
2016-08-24T04:05:28.084Z,19.91
2016-08-24T04:06:28.729Z,19.93
2016-08-24T04:07:28.889Z,19.86
2016-08-24T04:08:28.644Z,19.84
2016-08-24T04:09:28.615Z,19.75
2016-08-24T04:10:28.577Z,19.58
2016-08-24T04:11:28.510Z,19.7
2016-08-24T04:12:28.554Z,19.66
2016-08-24T04:13:28.624Z,19.69
2016-08-24T04:14:28.375Z,19.66
2016-08-24T04:15:28.325Z,19.63
2016-08-24T04:16:28.300Z,19.68
2016-08-24T04:17:28.230Z,19.66
2016-08-24T04:18:27.694Z,19.66
2016-08-24T04:19:28.144Z,19.7
2016-08-24T04:20:28.111Z,19.7
2016-08-24T04:21:28.065Z,19.66
2016-08-24T04:22:28.423Z,19.65
2016-08-24T04:23:28.177Z,19.63
2016-08-24T04:24:28.345Z,19.61
2016-08-24T04:25:27.884Z,19.58
2016-08-24T04:26:28.061Z,19.54
2016-08-24T04:27:27.803Z,19.51
2016-08-24T04:28:27.735Z,19.48
2016-08-24T04:29:27.711Z,19.54
2016-08-24T04:30:27.851Z,19.51
2016-08-24T04:31:27.123Z,19.66
2016-08-24T04:32:27.566Z,19.61
2016-08-24T04:33:27.725Z,19.65
2016-08-24T04:34:27.481Z,19.68
2016-08-24T04:35:27.434Z,19.69
2016-08-24T04:36:27.385Z,19.7
2016-08-24T04:37:27.543Z,19.61
2016-08-24T04:38:26.604Z,19.65
2016-08-24T04:39:27.464Z,19.7
2016-08-24T04:40:26.503Z,19.75
2016-08-24T04:41:27.154Z,19.79
2016-08-24T04:42:27.121Z,19.9
2016-08-24T04:43:27.077Z,19.9
2016-08-24T04:44:26.549Z,19.8
2016-08-24T04:45:27.194Z,19.8
2016-08-24T04:46:26.944Z,19.79
2016-08-24T04:47:26.896Z,19.87
2016-08-24T04:48:26.844Z,19.78
2016-08-24T04:49:26.821Z,19.83
2016-08-24T04:50:26.764Z,19.73
2016-08-24T04:51:26.909Z,19.76
2016-08-24T04:52:26.669Z,19.84
2016-08-24T04:53:26.631Z,19.79
2016-08-24T04:54:26.602Z,19.69
2016-08-24T04:55:26.541Z,19.58
2016-08-24T04:56:26.504Z,19.63
2016-08-24T04:57:26.455Z,19.53
2016-08-24T04:58:26.404Z,19.54
2016-08-24T04:59:26.354Z,19.57
2016-08-24T05:00:25.617Z,19.47
2016-08-24T05:01:26.484Z,19.47
2016-08-24T05:02:25.541Z,19.48
2016-08-24T05:03:26.184Z,19.5
2016-08-24T05:04:25.512Z,19.5
2016-08-24T05:05:25.594Z,19.47
2016-08-24T05:06:25.545Z,19.42
2016-08-24T05:07:25.305Z,19.5
2016-08-24T05:08:25.974Z,19.5
2016-08-24T05:09:25.913Z,19.7
2016-08-24T05:10:24.490Z,19.7
2016-08-24T05:11:25.835Z,19.69
2016-08-24T05:12:25.092Z,19.6
2016-08-24T05:13:26.012Z,19.65
2016-08-24T05:14:25.684Z,19.6
2016-08-24T05:15:24.255Z,19.75
2016-08-24T05:16:25.794Z,19.69
2016-08-24T05:17:24.855Z,19.8
2016-08-24T05:18:25.504Z,19.84
2016-08-24T05:19:25.701Z,19.8
2016-08-24T05:20:25.423Z,19.8
2016-08-24T05:21:25.644Z,19.84
2016-08-24T05:22:24.631Z,19.91
2016-08-24T05:23:24.785Z,20.02
2016-08-24T05:24:25.245Z,19.97
2016-08-24T05:25:25.194Z,20.03
2016-08-24T05:26:25.161Z,20
2016-08-24T05:27:25.123Z,19.87
2016-08-24T05:28:25.266Z,19.88
2016-08-24T05:29:25.244Z,19.88
2016-08-24T05:30:24.976Z,19.87
2016-08-24T05:31:24.934Z,19.88
2016-08-24T05:32:25.084Z,19.9
2016-08-24T05:33:24.534Z,19.97
2016-08-24T05:34:25.194Z,19.94
2016-08-24T05:35:24.734Z,20
2016-08-24T05:36:23.371Z,19.95
2016-08-24T05:37:24.153Z,20.02
2016-08-24T05:38:24.607Z,20.03
2016-08-24T05:39:24.593Z,19.97
2016-08-24T05:40:24.524Z,20
2016-08-24T05:41:23.782Z,19.88
2016-08-24T05:42:24.431Z,19.86
2016-08-24T05:43:24.394Z,19.95
2016-08-24T05:44:22.965Z,20.02
2016-08-24T05:45:24.718Z,20.08
2016-08-24T05:46:23.555Z,20
2016-08-24T05:47:24.411Z,19.97
2016-08-24T05:48:23.667Z,19.98
2016-08-24T05:49:24.325Z,19.94
2016-08-24T05:50:24.069Z,19.97
2016-08-24T05:51:23.334Z,19.98
2016-08-24T05:52:23.977Z,20.09
2016-08-24T05:53:23.947Z,20.12
2016-08-24T05:54:24.106Z,20.12
2016-08-24T05:55:23.355Z,20.09
2016-08-24T05:56:23.115Z,20.09
2016-08-24T05:57:23.271Z,20.12
2016-08-24T05:58:23.728Z,20.03
2016-08-24T05:59:22.975Z,20.09
2016-08-24T06:00:23.821Z,20.2
2016-08-24T06:01:23.584Z,20.23
2016-08-24T06:02:22.842Z,20.18
2016-08-24T06:03:23.724Z,20.15
2016-08-24T06:04:23.454Z,20.21
2016-08-24T06:05:23.856Z,20.25
2016-08-24T06:06:23.355Z,20.23
2016-08-24T06:07:23.725Z,20.28
2016-08-24T06:08:22.575Z,20.3
2016-08-24T06:09:23.224Z,20.35
2016-08-24T06:10:23.184Z,20.34
2016-08-24T06:11:23.136Z,20.42
2016-08-24T06:12:23.115Z,20.47
2016-08-24T06:13:23.055Z,20.49
2016-08-24T06:14:21.603Z,20.38
2016-08-24T06:15:23.162Z,20.51
2016-08-24T06:16:22.216Z,20.47
2016-08-24T06:17:23.070Z,20.56
2016-08-24T06:18:22.115Z,20.5
2016-08-24T06:19:22.804Z,20.59
2016-08-24T06:20:22.043Z,20.65
2016-08-24T06:21:22.703Z,20.74
2016-08-24T06:22:21.945Z,20.72
2016-08-24T06:23:22.611Z,20.72
2016-08-24T06:24:22.572Z,20.84
2016-08-24T06:25:21.825Z,20.91
2016-08-24T06:26:22.488Z,20.89
2016-08-24T06:27:22.424Z,20.87
2016-08-24T06:28:22.581Z,20.96
2016-08-24T06:29:21.637Z,21.06
2016-08-24T06:30:22.293Z,21.05
2016-08-24T06:31:21.584Z,21.09
2016-08-24T06:32:22.404Z,21.11
2016-08-24T06:33:21.666Z,21.06
2016-08-24T06:34:22.525Z,21.13
2016-08-24T06:35:21.635Z,21.09
2016-08-24T06:36:22.240Z,21.11
2016-08-24T06:37:21.987Z,21.19
2016-08-24T06:38:21.235Z,21.13
2016-08-24T06:39:21.898Z,21.14
2016-08-24T06:40:21.844Z,21.3
2016-08-24T06:41:21.314Z,21.34
2016-08-24T06:42:20.363Z,21.27
2016-08-24T06:43:21.915Z,21.32
2016-08-24T06:44:21.669Z,21.35
2016-08-24T06:45:21.634Z,21.5
2016-08-24T06:46:21.585Z,21.44
2016-08-24T06:47:21.544Z,21.41
2016-08-24T06:48:21.542Z,21.42
2016-08-24T06:49:20.975Z,21.63
2016-08-24T06:50:21.444Z,21.63
2016-08-24T06:51:21.365Z,21.61
2016-08-24T06:52:21.322Z,21.69
2016-08-24T06:53:21.490Z,21.74
2016-08-24T06:54:19.835Z,21.76
2016-08-24T06:55:21.204Z,21.78
2016-08-24T06:56:21.165Z,21.81
2016-08-24T06:57:21.124Z,21.92
2016-08-24T06:58:21.063Z,21.85
2016-08-24T06:59:21.032Z,21.97
2016-08-24T07:00:20.971Z,22.01
2016-08-24T07:01:20.924Z,21.99
2016-08-24T07:02:20.192Z,22.04
2016-08-24T07:03:20.871Z,22.07
2016-08-24T07:04:20.798Z,22.17
2016-08-24T07:05:20.755Z,22.17
2016-08-24T07:08:21.771Z,22.31
2016-08-24T07:09:20.795Z,22.29
2016-08-24T07:10:19.929Z,22.28
2016-08-24T07:11:20.531Z,22.41
2016-08-24T07:12:19.778Z,22.44
2016-08-24T07:13:19.932Z,22.53
2016-08-24T07:14:20.447Z,22.46
2016-08-24T07:15:20.543Z,22.47
2016-08-24T07:16:19.796Z,22.6
2016-08-24T07:17:19.577Z,22.64
2016-08-24T07:18:20.430Z,22.62
2016-08-24T07:19:20.214Z,22.57
2016-08-24T07:20:20.007Z,22.65
2016-08-24T07:21:20.170Z,22.71
2016-08-24T07:22:19.159Z,22.72
2016-08-24T07:23:19.385Z,22.78
2016-08-24T07:24:20.445Z,22.82
2016-08-24T07:25:20.131Z,22.84
2016-08-24T07:26:20.270Z,22.92
2016-08-24T07:27:19.842Z,22.86
2016-08-24T07:28:19.166Z,22.87
2016-08-24T07:29:19.738Z,22.94
2016-08-24T07:30:18.990Z,23.08
2016-08-24T07:31:19.686Z,23.01
2016-08-24T07:32:20.014Z,23.11
2016-08-24T07:33:19.570Z,23.11
2016-08-24T07:34:20.934Z,23.14
2016-08-24T07:35:19.492Z,23.15
2016-08-24T07:36:18.745Z,23.22
2016-08-24T07:37:19.438Z,23.24
2016-08-24T07:38:18.646Z,23.26
2016-08-24T07:39:19.530Z,23.31
2016-08-24T07:40:19.460Z,23.34
2016-08-24T07:41:18.752Z,23.4
2016-08-24T07:42:19.253Z,23.52
2016-08-24T07:43:19.150Z,23.58
2016-08-24T07:44:19.100Z,23.6
2016-08-24T07:45:18.354Z,23.65
2016-08-24T07:46:18.768Z,23.7
2016-08-24T07:47:17.584Z,23.76
2016-08-24T07:48:18.925Z,23.83
2016-08-24T07:49:18.882Z,23.9
2016-08-24T07:50:19.041Z,23.87
2016-08-24T07:51:18.096Z,23.89
2016-08-24T07:52:17.342Z,23.87
2016-08-24T07:53:18.011Z,24.02
2016-08-24T07:54:18.685Z,24.04
2016-08-24T07:55:17.230Z,24.12
2016-08-24T07:56:19.067Z,24.13
2016-08-24T07:57:18.607Z,24.14
2016-08-24T07:58:18.515Z,24.14
2016-08-24T07:59:17.753Z,24.14
2016-08-24T08:00:18.182Z,24.16
2016-08-24T08:01:17.863Z,24.27
2016-08-24T08:02:18.032Z,24.23
2016-08-24T08:03:18.499Z,24.24
2016-08-24T08:04:17.561Z,24.32
2016-08-24T08:05:17.544Z,24.41
2016-08-24T08:06:18.170Z,24.44
2016-08-24T08:07:18.340Z,24.37
2016-08-24T08:08:18.274Z,24.39
2016-08-24T08:09:19.637Z,24.45
2016-08-24T08:10:17.313Z,24.52
2016-08-24T08:11:16.804Z,24.54
2016-08-24T08:12:18.038Z,24.54
2016-08-24T08:13:18.363Z,24.6
2016-08-24T08:14:17.912Z,24.69
2016-08-24T08:15:18.350Z,24.77
2016-08-24T08:16:16.392Z,24.75
2016-08-24T08:17:18.437Z,24.73
2016-08-24T08:18:17.815Z,24.82
2016-08-24T08:19:17.650Z,24.77
2016-08-24T08:20:16.921Z,24.77
2016-08-24T08:21:16.877Z,24.87
2016-08-24T08:22:17.155Z,24.85
2016-08-24T08:23:16.854Z,24.92
2016-08-24T08:24:17.600Z,25.02
2016-08-24T08:25:17.401Z,25.01
2016-08-24T08:26:17.377Z,25.01
2016-08-24T08:27:17.324Z,25.02
2016-08-24T08:28:17.569Z,25.06
2016-08-24T08:29:16.530Z,25
2016-08-24T08:30:17.800Z,25.15
2016-08-24T08:31:16.455Z,25.15
2016-08-24T08:32:15.690Z,25.22
2016-08-24T08:33:17.084Z,25.37
2016-08-24T08:34:17.021Z,25.22
2016-08-24T08:35:17.003Z,25.38
2016-08-24T08:36:16.253Z,25.44
2016-08-24T08:37:16.989Z,25.49
2016-08-24T08:38:16.890Z,25.56
2016-08-24T08:39:16.978Z,25.65
2016-08-24T08:40:16.973Z,25.69
2016-08-24T08:41:16.822Z,25.69
2016-08-24T08:42:15.980Z,25.69
2016-08-24T08:43:15.968Z,25.71
2016-08-24T08:44:16.790Z,25.79
2016-08-24T08:45:16.561Z,25.82
2016-08-24T08:46:16.523Z,25.82
2016-08-24T08:47:15.815Z,25.8
2016-08-24T08:48:15.733Z,25.89
2016-08-24T08:49:16.492Z,25.87
2016-08-24T08:50:16.383Z,25.82
2016-08-24T08:51:15.808Z,25.68
2016-08-24T08:52:15.584Z,25.67
2016-08-24T08:53:16.318Z,25.72
2016-08-24T08:54:16.449Z,25.83
2016-08-24T08:55:15.429Z,25.77
2016-08-24T08:56:16.127Z,25.77
2016-08-24T08:57:15.388Z,25.79
2016-08-24T08:58:16.248Z,25.86
2016-08-24T08:59:15.961Z,26.01
2016-08-24T09:00:15.953Z,25.93
2016-08-24T09:01:15.205Z,26.04
2016-08-24T09:02:15.180Z,26.05
2016-08-24T09:03:15.817Z,26.04
2016-08-24T09:04:16.041Z,26.05
2016-08-24T09:05:15.727Z,26.15
2016-08-24T09:06:15.402Z,26.12
2016-08-24T09:07:15.859Z,26.12
2016-08-24T09:08:15.662Z,26.27
2016-08-24T09:09:14.940Z,26.21
2016-08-24T09:10:15.045Z,26.29
2016-08-24T09:11:14.805Z,26.36
2016-08-24T09:12:15.754Z,26.43
2016-08-24T09:13:14.278Z,26.44
2016-08-24T09:14:16.208Z,26.58
2016-08-24T09:15:13.924Z,26.58
2016-08-24T09:16:15.501Z,26.55
2016-08-24T09:17:15.446Z,26.58
2016-08-24T09:18:15.516Z,26.64
2016-08-24T09:19:15.208Z,26.5
2016-08-24T09:20:14.402Z,26.52
2016-08-24T09:21:14.385Z,26.59
2016-08-24T09:22:15.033Z,26.57
2016-08-24T09:23:15.012Z,26.74
2016-08-24T09:24:13.548Z,26.73
2016-08-24T09:25:15.083Z,26.69
2016-08-24T09:26:14.172Z,26.72
2016-08-24T09:27:14.843Z,26.76
2016-08-24T09:28:16.227Z,26.84
2016-08-24T09:29:14.248Z,26.84
2016-08-24T09:30:14.926Z,26.92
2016-08-24T09:31:14.002Z,26.95
2016-08-24T09:32:14.833Z,27.01
2016-08-24T09:33:13.924Z,27.05
2016-08-24T09:34:14.544Z,27.1
2016-08-24T09:35:14.946Z,27.09
2016-08-24T09:36:13.964Z,27.23
2016-08-24T09:37:14.483Z,27.2
2016-08-24T09:38:13.693Z,27.21
2016-08-24T09:39:13.694Z,27.21
2016-08-24T09:40:12.908Z,27.17
2016-08-24T09:41:14.469Z,27.21
2016-08-24T09:42:14.642Z,27.17
2016-08-24T09:43:14.207Z,27.24
2016-08-24T09:44:13.454Z,27.26
2016-08-24T09:45:13.428Z,27.19
2016-08-24T09:46:14.272Z,27.28
2016-08-24T09:47:14.023Z,27.29
2016-08-24T09:48:14.167Z,27.33
2016-08-24T09:49:14.230Z,27.41
2016-08-24T09:50:13.288Z,27.32
2016-08-24T09:51:13.365Z,27.41
2016-08-24T09:52:13.323Z,27.38
2016-08-24T09:53:13.782Z,27.47
2016-08-24T09:54:13.829Z,27.51
2016-08-24T09:55:13.700Z,27.59
2016-08-24T09:56:12.995Z,27.62
2016-08-24T09:57:12.921Z,27.7
2016-08-24T09:58:13.721Z,27.61
2016-08-24T09:59:13.740Z,27.58
2016-08-24T10:00:12.949Z,27.69
2016-08-24T10:01:13.481Z,27.61
2016-08-24T10:02:13.028Z,27.47
2016-08-24T10:03:12.740Z,27.69
2016-08-24T10:04:13.364Z,27.73
2016-08-24T10:05:13.326Z,27.61
2016-08-24T10:06:11.862Z,27.71
2016-08-24T10:07:12.559Z,27.67
2016-08-24T10:08:13.199Z,27.69
2016-08-24T10:09:13.162Z,27.74
2016-08-24T10:10:12.403Z,27.73
2016-08-24T10:11:13.149Z,27.79
2016-08-24T10:12:12.356Z,27.91
2016-08-24T10:13:12.481Z,27.85
2016-08-24T10:14:12.237Z,27.96
2016-08-24T10:15:13.117Z,27.99
2016-08-24T10:16:12.734Z,28.04
2016-08-24T10:17:12.111Z,28.04
2016-08-24T10:18:12.289Z,28.06
2016-08-24T10:19:11.405Z,28.03
2016-08-24T10:20:12.088Z,28.04
2016-08-24T10:21:12.449Z,28.03
2016-08-24T10:22:12.935Z,28.06
2016-08-24T10:23:12.014Z,27.98
2016-08-24T10:24:12.648Z,27.98
2016-08-24T10:25:12.769Z,28.06
2016-08-24T10:26:11.848Z,28.11
2016-08-24T10:27:12.614Z,28.14
2016-08-24T10:28:11.801Z,28.13
2016-08-24T10:29:11.115Z,28.31
2016-08-24T10:30:13.538Z,28.25
2016-08-24T10:31:12.309Z,28.22
2016-08-24T10:32:12.393Z,28.23
2016-08-24T10:33:12.236Z,28.22
2016-08-24T10:34:11.526Z,28.32
2016-08-24T10:35:12.337Z,28.25
2016-08-24T10:36:14.398Z,28.29
2016-08-24T10:37:12.052Z,28.4
2016-08-24T10:38:11.580Z,28.35
2016-08-24T10:39:11.279Z,28.44
2016-08-24T10:40:11.207Z,28.33
2016-08-24T10:41:11.866Z,28.36
2016-08-24T10:42:11.194Z,28.47
2016-08-24T10:43:11.165Z,28.53
2016-08-24T10:44:11.857Z,28.47
2016-08-24T10:45:11.075Z,28.5
2016-08-24T10:46:11.060Z,28.58
2016-08-24T10:47:11.680Z,28.63
2016-08-24T10:48:11.017Z,28.65
2016-08-24T10:49:10.916Z,28.51
2016-08-24T10:50:11.727Z,28.58
2016-08-24T10:51:11.101Z,28.5
2016-08-24T10:52:11.665Z,28.47
2016-08-24T10:53:11.416Z,28.6
2016-08-24T10:54:11.332Z,28.65
2016-08-24T10:55:11.494Z,28.54
2016-08-24T10:56:10.869Z,28.68
2016-08-24T10:57:11.427Z,28.69
2016-08-24T10:58:11.483Z,28.73
2016-08-24T10:59:10.686Z,28.65
2016-08-24T11:00:11.595Z,28.69
2016-08-24T11:01:10.946Z,28.65
2016-08-24T11:02:11.067Z,28.68
2016-08-24T11:03:11.066Z,28.82
2016-08-24T11:04:10.506Z,28.78
2016-08-24T11:05:10.985Z,28.84
2016-08-24T11:06:10.213Z,28.78
2016-08-24T11:07:11.238Z,28.9
2016-08-24T11:08:10.814Z,28.91
2016-08-24T11:09:10.372Z,29.04
2016-08-24T11:10:11.101Z,29.04
2016-08-24T11:11:10.201Z,29.16
2016-08-24T11:12:10.130Z,29.13
2016-08-24T11:13:10.672Z,29.22
2016-08-24T11:14:10.561Z,29.11
2016-08-24T11:15:10.607Z,29.18
2016-08-24T11:16:10.473Z,29.18
2016-08-24T11:17:09.207Z,29.26
2016-08-24T11:18:10.390Z,29.1
2016-08-24T11:19:09.638Z,29.19
2016-08-24T11:20:10.321Z,29.2
2016-08-24T11:21:10.294Z,29.16
2016-08-24T11:22:09.606Z,29.26
2016-08-24T11:23:10.742Z,29.29
2016-08-24T11:24:10.371Z,29.35
2016-08-24T11:25:10.115Z,29.34
2016-08-24T11:26:10.103Z,29.23
2016-08-24T11:27:10.041Z,29.16
2016-08-24T11:28:10.012Z,29.31
2016-08-24T11:29:09.984Z,29.35
2016-08-24T11:30:10.731Z,29.33
2016-08-24T11:31:09.889Z,29.44
2016-08-24T11:32:09.889Z,29.5
2016-08-24T11:33:09.174Z,29.56
2016-08-24T11:34:09.258Z,29.6
2016-08-24T11:35:09.705Z,29.7
2016-08-24T11:36:09.887Z,29.71
2016-08-24T11:37:08.240Z,29.72
2016-08-24T11:38:09.192Z,29.66
2016-08-24T11:39:09.541Z,29.66
2016-08-24T11:40:09.523Z,29.71
2016-08-24T11:41:09.203Z,29.74
2016-08-24T11:42:09.296Z,29.77
2016-08-24T11:43:08.716Z,29.79
2016-08-24T11:44:10.251Z,29.78
2016-08-24T11:45:11.341Z,29.79
2016-08-24T11:46:09.252Z,29.79
2016-08-24T11:47:09.358Z,29.82
2016-08-24T11:48:09.313Z,29.92
2016-08-24T11:49:09.273Z,30.03
2016-08-24T11:50:08.919Z,30.05
2016-08-24T11:51:09.403Z,30.07
2016-08-24T11:52:08.354Z,30.03
2016-08-24T11:53:09.123Z,30.15
2016-08-24T11:54:08.999Z,30.14
2016-08-24T11:55:09.522Z,30.26
2016-08-24T11:56:08.928Z,30.27
2016-08-24T11:57:08.273Z,30.31
2016-08-24T11:58:08.946Z,30.33
2016-08-24T11:59:08.175Z,30.31
2016-08-24T12:00:08.825Z,30.31
2016-08-24T12:01:09.136Z,30.31
2016-08-24T12:02:08.727Z,30.31
2016-08-24T12:03:08.172Z,30.31
2016-08-24T12:04:07.941Z,30.26
2016-08-24T12:05:08.652Z,30.24
2016-08-24T12:06:08.512Z,30.21
2016-08-24T12:07:08.814Z,30.26
2016-08-24T12:08:07.752Z,30.34
2016-08-24T12:09:08.419Z,30.45
2016-08-24T12:10:07.844Z,30.52
2016-08-24T12:11:08.371Z,30.61
2016-08-24T12:12:10.185Z,30.59
2016-08-24T12:13:08.233Z,30.57
2016-08-24T12:14:07.517Z,30.62
2016-08-24T12:15:09.627Z,30.53
2016-08-24T12:16:08.319Z,30.61
2016-08-24T12:17:08.103Z,30.57
2016-08-24T12:18:08.249Z,30.59
2016-08-24T12:19:06.804Z,30.68
2016-08-24T12:20:07.269Z,30.65
2016-08-24T12:21:07.912Z,30.72
2016-08-24T12:22:07.929Z,30.74
2016-08-24T12:23:07.380Z,30.75
2016-08-24T12:24:07.167Z,30.68
2016-08-24T12:25:06.368Z,30.62
2016-08-24T12:26:07.084Z,30.67
2016-08-24T12:27:07.681Z,30.8
2016-08-24T12:28:07.159Z,30.78
2016-08-24T12:29:07.129Z,30.72
2016-08-24T12:30:07.080Z,30.74
2016-08-24T12:31:06.847Z,30.76
2016-08-24T12:32:07.016Z,30.84
2016-08-24T12:33:06.877Z,30.89
2016-08-24T12:34:07.865Z,30.84
2016-08-24T12:35:07.997Z,30.89
2016-08-24T12:36:07.248Z,30.9
2016-08-24T12:37:06.648Z,30.87
2016-08-24T12:38:05.894Z,30.94
2016-08-24T12:39:07.609Z,30.96
2016-08-24T12:40:07.237Z,31.12
2016-08-24T12:41:05.845Z,31.09
2016-08-24T12:42:06.471Z,31.08
2016-08-24T12:43:07.093Z,31.15
2016-08-24T12:44:06.335Z,31.24
2016-08-24T12:45:07.076Z,31.18
2016-08-24T12:46:05.574Z,31.24
2016-08-24T12:47:06.309Z,31.23
2016-08-24T12:48:07.237Z,31.2
2016-08-24T12:49:06.171Z,31.28
2016-08-24T12:50:06.841Z,31.28
2016-08-24T12:51:06.117Z,31.31
2016-08-24T12:52:05.361Z,31.27
2016-08-24T12:53:06.699Z,31.26
2016-08-24T12:54:06.659Z,31.26
2016-08-24T12:55:06.816Z,31.2
2016-08-24T12:56:06.085Z,31.26
2016-08-24T12:57:06.637Z,31.3